F/V Mirentxu 1 — FNSF — position and weather

sailwx.info

Track history (hours):
 
Tides and Currents Weather Stations Pressure Air Temp Water Temp Dewpoint Dewpoint Depression Visibility Wind Speed Wind Dir Waves Ship Positions

F/V Mirentxu 1

Last reported at 2018-Jan-12 12:53 UTC. Time now 2018-Jan-22 04:26 UTC.
Position N 47°46' W 004°20'.
Warning: this ship's position is 9 days out of date.

Length 16 m; draft 3 m.

Type: Fishing. MMSI: 228302900.

Date/timePositionNaut miles runAvg speedWind from/ knotsBaromVisibWave heightAir tempDewpointWater temp
2018-Jan-12 12:53N 47°46' W 004°20'3 3.1
2018-Jan-12 11:53N 47°49' W 004°23'11 0.7
2018-Jan-11 21:05N 47°53' W 004°38'2 8.6
2018-Jan-11 20:48N 47°54' W 004°41'3 8.4
2018-Jan-11 20:30N 47°55' W 004°44'1 1.7
2018-Jan-11 20:00N 47°55' W 004°45'0 0.7
2018-Jan-11 19:30N 47°55' W 004°45'0 0.7
2018-Jan-11 18:57N 47°55' W 004°44'2 3.8
2018-Jan-11 18:30N 47°57' W 004°43'16 8.0
2018-Jan-11 16:34N 47°49' W 004°23'7 0.2
2018-Jan-10 05:58N 47°54' W 004°31'6 2.7
2018-Jan-10 03:37N 47°59' W 004°36'1 8.4
2018-Jan-10 03:27N 47°60' W 004°38'1 1.8
2018-Jan-10 02:52N 47°60' W 004°39'0 0.1
2018-Jan-10 02:30N 47°60' W 004°39'3 3.4
2018-Jan-10 01:46N 47°59' W 004°36'3 8.2
2018-Jan-10 01:25N 47°60' W 004°40'16 6.3
2018-Jan-09 22:58N 47°49' W 004°23'0 0.0
2018-Jan-09 02:39N 47°49' W 004°23'27 5.1
2018-Jan-08 21:21N 47°40' W 003°45'3 8.7
2018-Jan-08 21:00N 47°41' W 003°41'4 8.6
2018-Jan-08 20:31N 47°40' W 003°35'2 3.9
2018-Jan-08 20:00N 47°40' W 003°32'4 8.3
2018-Jan-08 19:30N 47°36' W 003°29'4 8.7
2018-Jan-08 19:00N 47°34' W 003°23'4 7.7
2018-Jan-08 18:30N 47°32' W 003°19'1 2.8
2018-Jan-08 18:01N 47°31' W 003°20'3 6.6
2018-Jan-08 17:31N 47°33' W 003°17'4 7.2
2018-Jan-08 17:01N 47°36' W 003°14'4 8.1
2018-Jan-08 16:31N 47°39' W 003°18'3 6.4
2018-Jan-08 16:01N 47°41' W 003°22'3 3.6
2018-Jan-08 15:15N 47°44' W 003°22'0 0.0
2018-Jan-07 23:18N 47°44' W 003°22'0 0.3
2018-Jan-07 23:01N 47°44' W 003°22'0 0.0
2018-Jan-07 22:30N 47°44' W 003°22'0 0.0
2018-Jan-07 22:01N 47°44' W 003°22'3 6.3
2018-Jan-07 21:30N 47°41' W 003°22'3 5.2
2018-Jan-07 21:00N 47°40' W 003°26'3 5.3
2018-Jan-07 20:30N 47°41' W 003°30'2 4.1
2018-Jan-07 20:01N 47°40' W 003°32'0 0.6
2018-Jan-07 19:31N 47°40' W 003°32'1 2.5
2018-Jan-07 19:01N 47°40' W 003°33'2 3.4
2018-Jan-07 18:31N 47°41' W 003°32'2 3.5
2018-Jan-07 18:01N 47°43' W 003°31'2 4.0
2018-Jan-07 17:31N 47°44' W 003°32'4 7.4
2018-Jan-07 17:01N 47°41' W 003°29'3 6.3
2018-Jan-07 16:30N 47°41' W 003°24'3 5.8
2018-Jan-07 16:01N 47°44' W 003°22'  
Track history (hours):
 
Tides and Currents Weather Stations Pressure Air Temp Water Temp Dewpoint Dewpoint Depression Visibility Wind Speed Wind Dir Waves Ship Positions

F/V Mirentxu 1

Last reported at 2018-Jan-12 12:53 UTC. Time now 2018-Jan-22 04:26 UTC.
Position N 47°46' W 004°20'.
Warning: this ship's position is 9 days out of date.

Length 16 m; draft 3 m.

Type: Fishing. MMSI: 228302900.

Date/timePositionNaut miles runAvg speedWind from/ knotsBaromVisibWave heightAir tempDewpointWater temp
2018-Jan-12 12:53N 47°46' W 004°20'3 3.1
2018-Jan-12 11:53N 47°49' W 004°23'11 0.7
2018-Jan-11 21:05N 47°53' W 004°38'2 8.6
2018-Jan-11 20:48N 47°54' W 004°41'3 8.4
2018-Jan-11 20:30N 47°55' W 004°44'1 1.7
2018-Jan-11 20:00N 47°55' W 004°45'0 0.7
2018-Jan-11 19:30N 47°55' W 004°45'0 0.7
2018-Jan-11 18:57N 47°55' W 004°44'2 3.8
2018-Jan-11 18:30N 47°57' W 004°43'16 8.0
2018-Jan-11 16:34N 47°49' W 004°23'7 0.2
2018-Jan-10 05:58N 47°54' W 004°31'6 2.7
2018-Jan-10 03:37N 47°59' W 004°36'1 8.4
2018-Jan-10 03:27N 47°60' W 004°38'1 1.8
2018-Jan-10 02:52N 47°60' W 004°39'0 0.1
2018-Jan-10 02:30N 47°60' W 004°39'3 3.4
2018-Jan-10 01:46N 47°59' W 004°36'3 8.2
2018-Jan-10 01:25N 47°60' W 004°40'16 6.3
2018-Jan-09 22:58N 47°49' W 004°23'0 0.0
2018-Jan-09 02:39N 47°49' W 004°23'27 5.1
2018-Jan-08 21:21N 47°40' W 003°45'3 8.7
2018-Jan-08 21:00N 47°41' W 003°41'4 8.6
2018-Jan-08 20:31N 47°40' W 003°35'2 3.9
2018-Jan-08 20:00N 47°40' W 003°32'4 8.3
2018-Jan-08 19:30N 47°36' W 003°29'4 8.7
2018-Jan-08 19:00N 47°34' W 003°23'4 7.7
2018-Jan-08 18:30N 47°32' W 003°19'1 2.8
2018-Jan-08 18:01N 47°31' W 003°20'3 6.6
2018-Jan-08 17:31N 47°33' W 003°17'4 7.2
2018-Jan-08 17:01N 47°36' W 003°14'4 8.1
2018-Jan-08 16:31N 47°39' W 003°18'3 6.4
2018-Jan-08 16:01N 47°41' W 003°22'3 3.6
2018-Jan-08 15:15N 47°44' W 003°22'0 0.0
2018-Jan-07 23:18N 47°44' W 003°22'0 0.3
2018-Jan-07 23:01N 47°44' W 003°22'0 0.0
2018-Jan-07 22:30N 47°44' W 003°22'0 0.0
2018-Jan-07 22:01N 47°44' W 003°22'3 6.3
2018-Jan-07 21:30N 47°41' W 003°22'3 5.2
2018-Jan-07 21:00N 47°40' W 003°26'3 5.3
2018-Jan-07 20:30N 47°41' W 003°30'2 4.1
2018-Jan-07 20:01N 47°40' W 003°32'0 0.6
2018-Jan-07 19:31N 47°40' W 003°32'1 2.5
2018-Jan-07 19:01N 47°40' W 003°33'2 3.4
2018-Jan-07 18:31N 47°41' W 003°32'2 3.5
2018-Jan-07 18:01N 47°43' W 003°31'2 4.0
2018-Jan-07 17:31N 47°44' W 003°32'4 7.4
2018-Jan-07 17:01N 47°41' W 003°29'3 6.3
2018-Jan-07 16:30N 47°41' W 003°24'3 5.8
2018-Jan-07 16:01N 47°44' W 003°22'  

Dump ship's entire track history